Terminal Aerodrome Forecast
Issued by NWS Louisville, KY

Home | Current Version | Previous Version | Text Only | Print | Product List | Glossary On
Versions: 1 2 3 4 5 6 7 8 9 10 11 12 13 14 15
037
FTUS43 KLMK 281148 CCA
TAFBWG
TAF COR
KBWG 281148Z 2812/0112 18010KT P6SM BKN015
     FM281400 18012KT 4SM -SHRA BR VCTS BKN012CB
     FM281700 20014G21KT 3SM SHRA BR VCTS BKN008CB
     FM282300 20014G21KT 5SM BR OVC008
     FM010500 21017G25KT 4SM -SHRA BR VCTS BKN015CB=

USA.gov is the U.S. government's official web portal to all federal, state and local government web resources and services.